Breaux Bridge, Louisiana
Current Conditions -  °F | °C
As of 1:53 PM on Thursday 30 Oct 2014 (Local Time) from KLFT Reporting Station
Clear Clear  
Wind Chill: 74°   Ceiling: Unl
Heat Index: 74°   Visibility: 10mi
Dew Point: 42°   Wind: 8mph
Humidity: 32%   Direction: 10°N
Pressure: 30.08"   Gusts: NA
Location:  30.27°N, 91.9°W
Report Text: KLFT 301853Z 01007KT 10SM CLR 23/06 A3008 RMK AO2 SLP185 T02330056
Loading
Personal Weather Stations






























Interactive Weather Map
Tropical Storm Tracking
New forecast layout! Learn more

10-Day Weather Forecast

Advertisements
Track Severe Weather on mobile